Tiempo atmosférico en la estación meteorológica de Hellín, Albacete (520 m.)



Fecha
DESCASC
Temp. máxima en grados centígrados (hora)
DESCASC
Temp. mínima en grados centígrados (hora)
DESCASC
Temp. media en grados centígrados
DESCASC
Racha de viento máxima en m/sg (hora)
DESCASC
Velocidad máxima media en intervalos de 10 minutos(hora)
DESCASC
Precipitaciones diarias en mm
DESCASC
Precipitaciones de 00:00 a 06:00 en mm
DESCASC
Precipitaciones de 06:00 a 12:00 en mm
DESCASC
Precipitaciones de 12:00 a 18:00 en mm
DESCASC
Precipitaciones de 18:00 a 24:00 en mm
DESCASC
17-09-2020 27.8 (17:00) 18.6 (00:00) 23.2 7.22 (20:10) 3.61 (17:00) 22.7 0 0 0 22.7
18-09-2020 22.2 (17:10) 15.7 (00:00) 19 9.72 (13:40) 5 (13:30) 8.9 4.6 4.1 0.2 0
14-09-2020 28.9 (16:30) 15.4 (00:00) 22.1 13.33 (23:20) 7.22 (23:20) 0.2 0 0 0 0.2
06-09-2020 29.1 (17:20) 16.2 (00:00) 22.7 7.5 (15:00) 3.06 (17:00) 0 0 0 0 0
20-09-2020 25.5 (18:00) 14.7 (00:00) 20.1 7.22 (18:20) 4.44 (02:00) 0 0 0 0 0
19-09-2020 25.8 (16:20) 14 (00:00) 19.9 11.94 (13:00) 6.67 (16:30) 0 0 0 0 0
16-09-2020 30.3 (15:10) 15.7 (00:00) 23 7.22 (15:30) 3.61 (15:40) 0 0 0 0 0
15-09-2020 30.4 (16:40) 15.9 (00:00) 23.1 7.5 (15:50) 3.89 (17:40) 0 0 0 0 0
13-09-2020 29.7 (16:50) 15.4 (00:00) 22.6 8.61 (17:20) 5 (17:40) 0 0 0 0 0
12-09-2020 30.8 (16:20) 16.8 (00:00) 23.8 7.22 (16:30) 3.89 (20:00) 0 0 0 0 0
11-09-2020 31.5 (16:10) 15.2 (00:00) 23.3 6.67 (19:20) 4.17 (19:30) 0 0 0 0 0
10-09-2020 30.1 (17:50) 14.5 (00:00) 22.3 7.78 (19:50) 3.89 (19:00) 0 0 0 0 0
09-09-2020 27.5 (18:00) 13.8 (00:00) 20.7 6.11 (20:40) 3.61 (05:50) 0 0 0 0 0
08-09-2020 26.1 (17:40) 14.7 (00:00) 20.4 7.22 (09:50) 4.17 (09:50) 0 0 0 0 0
07-09-2020 27.9 (15:10) 16.9 (05:10) 22.4 11.39 (15:30) 6.94 (15:30) 0 0 0 0 0
22-08-2020 37.2 (17:20) 22.6 (00:00) 29.9 10 (17:50) 5.28 (06:30) 0 0 0 0 0
05-09-2020 30 (17:20) 15.5 (00:00) 22.8 6.39 (19:40) 3.89 (19:30) 0 0 0 0 0
04-09-2020 28.3 (17:10) 15.5 (00:00) 21.9 6.94 (13:20) 3.89 (18:40) 0 0 0 0 0
03-09-2020 28.6 (16:20) 16.1 (00:00) 22.4 6.39 (13:50) 3.89 (22:10) 0 0 0 0 0
27-08-2020 37.6 (16:00) 20.6 (00:00) 29.1 9.17 (20:00) 5.28 (18:30) 0 0 0 0 0
26-08-2020 36.5 (17:10) 19.5 (00:00) 28 7.5 (15:20) 3.61 (14:10) 0 0 0 0 0
25-08-2020 35.3 (17:00) 19.5 (00:00) 27.4 7.22 (18:10) 4.17 (20:30) 0 0 0 0 0
24-08-2020 31.8 (16:40) 21.5 (00:00) 26.6 7.78 (13:10) 3.89 (13:10) 0 0 0 0 0
23-08-2020 32.3 (16:10) 20.6 (00:00) 26.4 8.89 (16:50) 5 (16:50) 0 0 0 0 0
02-09-2020 -- (--) -- (--) -- -- (--) -- (--) -- -- -- 0 0
01-09-2020 -- (--) -- (--) -- -- (--) -- (--) -- -- -- -- --
31-08-2020 -- (--) -- (--) -- -- (--) -- (--) -- -- -- -- --
30-08-2020 -- (--) -- (--) -- -- (--) -- (--) -- -- -- -- --
29-08-2020 -- (--) -- (--) -- -- (--) -- (--) -- -- -- -- --
28-08-2020 -- (--) -- (--) -- -- (--) -- (--) -- 0 0 0 --

Gráficas

Temp. máximas Temp. mínimas Temp. medias Precipitaciones Rachas de viento máximas Velocidades máximas media en intervalos de 10 minutos

Datos horarios

Fecha y hora oficial Temperatura (ºC) Velocidad del viento (km/h) Dirección del viento Racha (km/h) Dirección de racha Precipitación (mm) Presión (hPa) Tendencia (hPa) Humedad (%)
2020-09-20 23:00:00 20.2 9 Nordeste 22 Nordeste 0 949.4 -- 53
2020-09-20 22:00:00 20.3 12 Este 21 Este 0 949.1 -- 53
2020-09-20 21:00:00 21.1 10 Nordeste 16 Este 0 948.5 -- 47
2020-09-20 20:00:00 22.9 10 Este 23 Nordeste 0 947.5 -- 42
2020-09-20 19:00:00 25 12 Nordeste 26 Nordeste 0 947.2 -- 38
2020-09-20 18:00:00 25.5 14 Este 25 Este 0 947 -- 39
2020-09-20 17:00:00 24.3 11 Este 25 Nordeste 0 947.4 -- 41
2020-09-20 16:00:00 24.4 9 Este 25 Este 0 947.9 -- 42
2020-09-20 15:00:00 23.5 13 Este 22 Este 0 948.6 -- 44
2020-09-20 14:00:00 22.9 9 Este 19 Este 0 949.1 -- 49
2020-09-20 13:00:00 22.4 11 Este 19 Este 0 949.5 -- 51
2020-09-20 12:00:00 21.8 9 Este 17 Nordeste 0 949.9 -- 56
2020-09-20 11:00:00 20.3 8 Nordeste 14 Nordeste 0 950.1 -- 60
2020-09-20 10:00:00 18.8 4 Norte 10 Nordeste 0 950 -- 69
2020-09-20 09:00:00 15.9 3 Sudeste 8 Sur 0 949.7 -- 84
2020-09-20 08:00:00 15 0 Calma 15 Nordeste 0 949.3 -- 83
2020-09-20 07:00:00 15.5 12 Nordeste 17 Nordeste 0 949 -- 82
2020-09-20 06:00:00 16.3 10 Norte 22 Norte 0 948.9 -- 78
2020-09-20 05:00:00 16.1 10 Norte 19 Norte 0 949.2 -- 80
2020-09-20 04:00:00 16.3 7 Norte 21 Nordeste 0 949.4 -- 77
2020-09-20 03:00:00 17 11 Nordeste 25 Norte 0 949.8 -- 76
2020-09-20 02:00:00 16.9 16 Norte 23 Norte 0 949.8 -- 77
2020-09-20 01:00:00 16.8 5 Norte 12 Nordeste 0 949.8 -- 75
2020-09-20 00:00:00 17.5 5 Norte 28 Norte 0 949.9 -- 70
2020-09-19 23:00:00 18.8 18 Norte 28 Norte 0 949.6 -- 63
2020-09-19 22:00:00 19.5 21 Norte 32 Norte 0 949 -- 60
2020-09-19 21:00:00 20.1 19 Norte 35 Norte 0 948.1 -- 55
2020-09-19 20:00:00 21.1 24 Norte 41 Norte 0 947.5 -- 47
2020-09-19 19:00:00 22.9 21 Norte 35 Norte 0 946.9 -- 40
2020-09-19 18:00:00 24.5 19 Noroeste 32 Noroeste 0 946.8 -- 38
2020-09-19 17:00:00 24.7 23 Noroeste 36 Noroeste 0 947.1 -- 37
2020-09-19 16:00:00 25.3 21 Noroeste 36 Noroeste 0 947.1 -- 36
2020-09-19 15:00:00 25 18 Oeste 34 Noroeste 0 947.8 -- 37
2020-09-19 14:00:00 24.3 16 Noroeste 33 Noroeste 0 948.2 -- 39
2020-09-19 13:00:00 23.2 21 Noroeste 43 Noroeste 0 948.8 -- 44
2020-09-19 12:00:00 21.7 9 Noroeste 25 Noroeste 0 948.9 -- 54
2020-09-19 11:00:00 19.9 7 Oeste 16 Oeste 0 949 -- 65
2020-09-19 10:00:00 17.6 3 Oeste 9 Oeste 0 948.6 -- 97
2020-09-19 09:00:00 15.3 0 Calma 3 Norte 0 948.4 -- 98
2020-09-19 08:00:00 14.3 3 Este 8 Este 0 947.7 -- 98
2020-09-19 07:00:00 14.7 0 Calma 9 Noroeste 0 947.1 -- 98
2020-09-19 06:00:00 15.2 0 Calma 8 Norte 0 947.3 -- 98
2020-09-19 05:00:00 15.4 4 Nordeste 7 Nordeste 0 946.9 -- 97
2020-09-19 04:00:00 16.2 0 Calma 8 Nordeste 0 947 -- 97
2020-09-19 03:00:00 16.7 6 Nordeste 12 Nordeste 0 947.3 -- 97
2020-09-19 02:00:00 16.8 0 Calma -- -- 0 947.2 -- 95
2020-09-19 01:00:00 17.3 0 Calma -- -- 0 948 -- 94
2020-09-19 00:00:00 17.7 0 Calma 4 Sudeste 0 948.1 -- 93
2020-09-18 23:00:00 18 3 Sudeste 9 Sudeste 0 948 -- 93
2020-09-18 22:00:00 18.3 0 Calma 10 Sudeste 0 947.7 -- 92
2020-09-18 21:00:00 18.7 4 Sur 12 Sur 0 946.9 -- 89
2020-09-18 20:00:00 19.6 3 Sur 18 Sudoeste 0 946 -- 83
2020-09-18 19:00:00 20.6 7 Sur 23 Sur 0 945.8 -- 78
2020-09-18 18:00:00 21.4 13 Sudoeste 28 Sur 0 945.5 -- 69
2020-09-18 17:00:00 21.6 8 Sur 22 Sur 0 945.5 -- 71
2020-09-18 16:00:00 20.5 13 Sudoeste 26 Sudoeste 0 946.4 -- 80
2020-09-18 15:00:00 19.2 6 Sur 16 Sudoeste 0 947 -- 88
2020-09-18 14:00:00 18.2 6 Sur 35 Sur 0.1 946.9 -- 96
2020-09-18 13:00:00 17.6 8 Sur 21 Sur 0.1 947.4 -- 97
2020-09-18 12:00:00 17.7 6 Sur 17 Sur 0 948.2 -- 97
2020-09-18 11:00:00 17.2 0 Calma 10 Sudeste 0 948 -- 97
2020-09-18 10:00:00 16.5 6 Sudeste 13 Este 0.7 947.3 -- 97
2020-09-18 09:00:00 16 2 Sudeste 15 Sudeste 0 947.1 -- 97
2020-09-18 08:00:00 15.8 3 Sudeste 19 Sudeste 0.6 946.5 -- 97
2020-09-18 07:00:00 16.5 4 Sudeste 12 Sudeste 2.8 947.5 -- 97
2020-09-18 06:00:00 17.5 3 Sudeste 13 Sudoeste 1 947.8 -- 97
2020-09-18 05:00:00 17.5 6 Sur 18 Sudoeste 0.7 947.7 -- 97
2020-09-18 04:00:00 18.5 4 Sur 15 Oeste 2.5 947.8 -- 97
2020-09-18 03:00:00 19.5 4 Oeste 12 Oeste 0.4 948.1 -- 97
2020-09-18 02:00:00 19.7 0 Calma 3 Noroeste 0 947.3 -- 97
2020-09-18 01:00:00 19.8 0 Calma 6 Sur 0 947.5 -- 97
2020-09-18 00:00:00 19.8 0 Calma 5 Oeste 0 947.4 -- 97
2020-09-17 23:00:00 20 0 Calma 7 Noroeste 1.2 947.4 -- 97
2020-09-17 22:00:00 20.2 4 Oeste 11 Oeste 1.9 947.2 -- 97
2020-09-17 21:00:00 20.2 0 Calma 26 Noroeste 8.8 946.2 -- 95
2020-09-17 20:00:00 21.4 9 Sudoeste 18 Sudoeste 9.7 946 -- 94
2020-09-17 19:00:00 22.8 8 Sudoeste 23 Sudoeste 1.1 946 -- 81
2020-09-17 18:00:00 26.2 9 Sur 22 Sudoeste 0 946 -- 53
2020-09-17 17:00:00 27.5 13 Sudoeste 26 Sudoeste 0 946.1 -- 48
2020-09-17 16:00:00 27.4 7 Sur 24 Sur 0 946.5 -- 48
2020-09-17 15:00:00 26.1 7 Sur 19 Sur 0 947.1 -- 51
2020-09-17 14:00:00 25.1 8 Sudoeste 19 Sur 0 948 -- 51
2020-09-17 13:00:00 22.6 8 Sur 18 Sudoeste 0 948.6 -- 57
2020-09-17 12:00:00 22.3 7 Sudoeste 13 Sudoeste 0 949.1 -- 59
2020-09-17 11:00:00 21.7 5 Sudoeste 11 Sur 0 949.1 -- 61
2020-09-17 10:00:00 20.2 4 Oeste 7 Oeste 0 948.5 -- 69
2020-09-17 09:00:00 18.9 0 Calma 5 Noroeste 0 948.2 -- 70
2020-09-17 08:00:00 18.8 2 Oeste 8 Sudeste 0 948.1 -- 67
2020-09-17 07:00:00 19.1 4 Nordeste 9 Este 0 947.4 -- 76
2020-09-17 06:00:00 19.4 0 Calma 6 Sudeste 0 948.1 -- 70
2020-09-17 05:00:00 20 3 Este 10 Nordeste 0 948.5 -- 64
2020-09-17 04:00:00 19.8 3 Norte 6 Noroeste 0 949.4 -- 65
2020-09-17 03:00:00 20.1 0 Calma 10 Sudoeste 0 949.5 -- 65
2020-09-17 02:00:00 19.4 5 Oeste 7 Oeste 0 949.7 -- 64
2020-09-17 01:00:00 19.3 3 Oeste 5 Noroeste 0 949.6 -- 58
2020-09-17 00:00:00 20.5 0 Calma 12 Sudoeste 0 949.7 -- 53
2020-09-16 23:00:00 21.5 7 Sudoeste 12 Sudoeste 0 949.3 -- 47
2020-09-16 22:00:00 22.5 3 Sudoeste 18 Sudoeste 0 949.1 -- 43
2020-09-16 21:00:00 23.4 8 Sudoeste 23 Sudoeste 0 948.6 -- 40
2020-09-16 20:00:00 25.2 8 Sudoeste 21 Sudoeste 0 947.9 -- 38
2020-09-16 19:00:00 26.9 10 Sudoeste 23 Sudoeste 0 948 -- 35
2020-09-16 18:00:00 28.9 8 Sudoeste 23 Sur 0 947.9 -- 30
2020-09-16 17:00:00 29.8 10 Sudoeste 24 Sudoeste 0 948.1 -- 28
2020-09-16 16:00:00 30.2 12 Sudoeste 26 Oeste 0 948.7 -- 26
2020-09-16 15:00:00 30 10 Sudoeste 25 Sudoeste 0 949.4 -- 27
2020-09-16 14:00:00 28.9 10 Sudoeste 22 Sudoeste 0 950.1 -- 31
2020-09-16 13:00:00 27 6 Sudoeste 14 Sudoeste 0 950.6 -- 37
2020-09-16 12:00:00 25.1 4 Sudoeste 11 Oeste 0 951.2 -- 51
2020-09-16 11:00:00 22.3 3 Sudeste 6 Sudeste 0 951.4 -- 66
2020-09-16 10:00:00 20.5 3 Sur 8 Sudoeste 0 951.6 -- 79
2020-09-16 09:00:00 17.4 6 Este 10 Este 0 951.6 -- 93
2020-09-16 08:00:00 16.2 0 Calma 5 Este 0 951.3 -- 97
2020-09-16 07:00:00 16.5 0 Calma 6 Sudeste 0 951.1 -- 97
2020-09-16 06:00:00 17.7 3 Nordeste 5 Norte 0 951.1 -- 96
2020-09-16 05:00:00 17.7 0 Calma 3 Sudeste 0 951.3 -- 94
2020-09-16 04:00:00 17.9 2 Norte 3 Norte 0 951.3 -- 92
2020-09-16 03:00:00 19.1 0 Calma 6 Noroeste 0 951.8 -- 89
2020-09-16 02:00:00 19.2 0 Calma 6 Sudoeste 0 952 -- 78
2020-09-16 01:00:00 20.6 2 Oeste 7 Oeste 0 952.1 -- 63
2020-09-16 00:00:00 21.5 0 Calma 10 Sudoeste 0 952.2 -- 55
2020-09-15 23:00:00 21.9 4 Oeste 11 Oeste 0 952.1 -- 48
2020-09-15 22:00:00 23.7 7 Sudoeste 16 Sudoeste 0 951.8 -- 38
2020-09-15 21:00:00 24.4 5 Sudoeste 17 Sudoeste 0 951.1 -- 38
2020-09-15 20:00:00 25.8 6 Sudoeste 22 Sudoeste 0 950.6 -- 38
2020-09-15 19:00:00 28.3 8 Sudoeste 22 Oeste 0 950.4 -- 32
2020-09-15 18:00:00 29.4 13 Sudoeste 24 Oeste 0 950.3 -- 30
2020-09-15 17:00:00 29.9 9 Sudoeste 23 Sudoeste 0 950.6 -- 27
2020-09-15 16:00:00 29.6 11 Sudoeste 27 Oeste 0 951.2 -- 30
2020-09-15 15:00:00 29.2 9 Sudoeste 21 Oeste 0 952 -- 31
2020-09-15 14:00:00 27.4 6 Sudoeste 20 Oeste 0 952.6 -- 36
2020-09-15 13:00:00 26.8 8 Oeste 15 Sudoeste 0 953.2 -- 40
2020-09-15 12:00:00 25.1 5 Oeste 10 Sudoeste 0 953.7 -- 48
2020-09-15 11:00:00 23 3 Oeste 8 Oeste 0 953.9 -- 63
2020-09-15 10:00:00 19.6 2 Noroeste 6 Noroeste 0 953.6 -- 87
2020-09-15 09:00:00 17.3 3 Nordeste 9 Nordeste 0 953.4 -- 95
2020-09-15 08:00:00 16.3 2 Norte 5 Norte 0 953.1 -- 95
2020-09-15 07:00:00 16.4 2 Sur 6 Este 0 952.9 -- 95
2020-09-15 06:00:00 17.1 5 Este 9 Este 0 953.1 -- 95
2020-09-15 05:00:00 17.2 5 Este 9 Este 0 952.9 -- 93
2020-09-15 04:00:00 17.4 3 Noroeste 9 Noroeste 0 953.5 -- 93
2020-09-15 03:00:00 18 0 Calma 5 Norte 0 953.3 -- 92
2020-09-15 02:00:00 18.6 4 Norte 10 Norte 0 953.8 -- 91
2020-09-15 01:00:00 19.7 5 Oeste 14 Oeste 0 954 -- 85
2020-09-15 00:00:00 20.4 12 Oeste 48 Sudeste 0.2 954 -- 83
2020-09-14 23:00:00 22 8 Sur 18 Sur 0 953 -- 61
2020-09-14 22:00:00 22.6 6 Sudoeste 18 Sudoeste 0 953.5 -- 54
2020-09-14 21:00:00 23.2 8 Sudoeste 16 Sur 0 952.8 -- 47
2020-09-14 20:00:00 24 11 Sur 21 Sudoeste 0 952.4 -- 44
2020-09-14 19:00:00 25.4 14 Sudoeste 26 Sudoeste 0 952.3 -- 43
2020-09-14 18:00:00 27.6 10 Sur 23 Sur 0 951.9 -- 38
2020-09-14 17:00:00 27.7 10 Sur 26 Sudoeste 0 952.2 -- 37
2020-09-14 16:00:00 28.5 9 Sur 27 Sudoeste 0 952.8 -- 39
2020-09-14 15:00:00 27.7 12 Sudoeste 26 Sudoeste 0 953.5 -- 40
2020-09-14 14:00:00 27.1 8 Sur 25 Sur 0 953.9 -- 38
2020-09-14 13:00:00 26.3 9 Sudoeste 19 Sudoeste 0 954.6 -- 42
2020-09-14 12:00:00 24 8 Sudoeste 17 Sudoeste 0 955 -- 47
2020-09-14 11:00:00 22.9 5 Oeste 10 Oeste 0 954.8 -- 51
2020-09-14 10:00:00 21 2 Sur 5 Este 0 954.7 -- 68
2020-09-14 09:00:00 17.7 3 Este 6 Este 0 954.3 -- 88
2020-09-14 08:00:00 15.9 0 Calma 8 Norte 0 954.1 -- 92
2020-09-14 07:00:00 15.9 3 Nordeste 6 Nordeste 0 953.8 -- 92
2020-09-14 06:00:00 17 0 Calma 8 Nordeste 0 953.9 -- 92
2020-09-14 05:00:00 17.1 6 Nordeste 10 Nordeste 0 954 -- 92
2020-09-14 04:00:00 17.2 4 Nordeste 6 Nordeste 0 954.7 -- 87
2020-09-14 03:00:00 17.7 0 Calma 2 Nordeste 0 955.1 -- 85
2020-09-14 02:00:00 18.3 0 Calma 4 Noroeste 0 955.1 -- 80
2020-09-14 01:00:00 19 0 Calma 4 Noroeste 0 955.2 -- 78
2020-09-14 00:00:00 19.6 3 Noroeste 6 Noroeste 0 955.2 -- 69
2020-09-13 23:00:00 21.3 4 Sudoeste 13 Sudoeste 0 955 -- 64
2020-09-13 22:00:00 22.2 2 Sur 9 Sudeste 0 954.4 -- 53
2020-09-13 21:00:00 23.5 4 Sur 20 Sudoeste 0 953.6 -- 46
2020-09-13 20:00:00 24.5 13 Sudoeste 25 Sur 0 953.4 -- 43
2020-09-13 19:00:00 26.1 13 Sudoeste 27 Sudoeste 0 953.4 -- 37
2020-09-13 18:00:00 27.7 15 Sur 31 Sudoeste 0 953.3 -- 36
2020-09-13 17:00:00 29 12 Sudoeste 27 Sudoeste 0 953.1 -- 34
2020-09-13 16:00:00 29.1 14 Sudoeste 28 Sudoeste 0 953.4 -- 34
2020-09-13 15:00:00 28.8 14 Sudoeste 26 Sudoeste 0 953.8 -- 36
2020-09-13 14:00:00 28.4 12 Sudoeste 23 Sudoeste 0 954.2 -- 37
2020-09-13 13:00:00 26.6 6 Sur 16 Sudoeste 0 954.5 -- 40
2020-09-13 12:00:00 25.5 6 Sudoeste 14 Sudoeste 0 954.9 -- 44
2020-09-13 11:00:00 23.5 4 Sur 8 Sudoeste 0 954.7 -- 53
2020-09-13 10:00:00 21.2 2 Este 5 Sudeste 0 954.4 -- 63
2020-09-13 09:00:00 17.8 0 Calma 5 Nordeste 0 954 -- 82
2020-09-13 08:00:00 15.5 0 Calma 6 Nordeste 0 953.6 -- 85
2020-09-13 07:00:00 16.3 4 Nordeste 6 Nordeste 0 953.1 -- 84
2020-09-13 06:00:00 16.9 3 Nordeste 5 Nordeste 0 952.8 -- 83
2020-09-13 05:00:00 17.2 0 Calma 3 Nordeste 0 952.9 -- 80
2020-09-13 04:00:00 17.8 2 Este 3 Este 0 952.9 -- 80
2020-09-13 03:00:00 18.3 0 Calma 6 Sudeste 0 953.2 -- 77
2020-09-13 02:00:00 18.7 3 Este 5 Sudoeste 0 953.4 -- 68
2020-09-13 01:00:00 18.7 2 Sudoeste 6 Sudoeste 0 953.3 -- 62
2020-09-13 00:00:00 19.8 2 Sudoeste 13 Sudoeste 0 952.8 -- 56
2020-09-12 23:00:00 20.9 4 Oeste 15 Sur 0 952.4 -- 52
2020-09-12 22:00:00 22.4 7 Sur 20 Sudoeste 0 951.6 -- 48
2020-09-12 21:00:00 24 10 Sur 21 Sudoeste 0 950.6 -- 40
2020-09-12 20:00:00 25.9 14 Sur 24 Sur 0 950.1 -- 34
2020-09-12 19:00:00 28.4 11 Sur 25 Sur 0 949.5 -- 30
2020-09-12 18:00:00 29.5 9 Sur 23 Sur 0 949.3 -- 29
2020-09-12 17:00:00 30.2 11 Sudoeste 26 Sudoeste 0 949.3 -- 27
2020-09-12 16:00:00 30 10 Sur 25 Sur 0 949.5 -- 28
2020-09-12 15:00:00 29.6 10 Sudoeste 25 Sudoeste 0 949.9 -- 30
2020-09-12 14:00:00 27.8 13 Sur 24 Sur 0 950.2 -- 33
2020-09-12 13:00:00 27 8 Sudoeste 24 Sudoeste 0 950.4 -- 36
2020-09-12 12:00:00 25.1 10 Sudoeste 20 Sudoeste 0 950.6 -- 40
2020-09-12 11:00:00 23.4 4 Sur 10 Sudoeste 0 950.5 -- 47
2020-09-12 10:00:00 21.4 4 Sudeste 9 Sudeste 0 950 -- 54
2020-09-12 09:00:00 19 4 Este 6 Nordeste 0 949.7 -- 63
2020-09-12 08:00:00 17 5 Nordeste 8 Nordeste 0 949 -- 66
2020-09-12 07:00:00 17.2 5 Nordeste 6 Este 0 948.4 -- 61
2020-09-12 06:00:00 17.6 2 Nordeste 6 Nordeste 0 948.2 -- 58
2020-09-12 05:00:00 18.2 3 Nordeste 9 Este 0 947.9 -- 56
2020-09-12 04:00:00 18.7 6 Este 9 Este 0 947.6 -- 53
2020-09-12 03:00:00 19.5 4 Este 8 Este 0 947.7 -- 49
2020-09-12 02:00:00 20.1 3 Este 8 Este 0 947.6 -- 45
2020-09-12 01:00:00 20.7 5 Este 10 Este 0 947.4 -- 40
2020-09-12 00:00:00 21.3 4 Este 7 Sur 0 947.3 -- 38
2020-09-11 23:00:00 22.5 2 Sudeste 12 Sur 0 946.9 -- 35
2020-09-11 22:00:00 23.9 4 Sur 17 Sur 0 946.7 -- 34
2020-09-11 21:00:00 25.2 6 Sudoeste 20 Sudoeste 0 945.6 -- 32
2020-09-11 20:00:00 26.9 8 Sur 24 Sur 0 945.1 -- 29
2020-09-11 19:00:00 28.7 12 Sudoeste 21 Sur 0 944.8 -- 26
2020-09-11 18:00:00 30.6 9 Sudoeste 22 Sudoeste 0 944.8 -- 25
2020-09-11 17:00:00 30.8 8 Sudeste 18 Sur 0 945.1 -- 25
2020-09-11 16:00:00 31.3 5 Oeste 15 Noroeste 0 945.4 -- 25
2020-09-11 15:00:00 29.6 4 Sur 16 Oeste 0 946 -- 27
2020-09-11 14:00:00 28.1 5 Sur 14 Sudoeste 0 946.6 -- 34
2020-09-11 13:00:00 26.5 8 Sudoeste 16 Sudoeste 0 947.3 -- 40
2020-09-11 12:00:00 23.7 8 Sur 14 Sudoeste 0 947.9 -- 50
2020-09-11 11:00:00 21.8 3 Sur 8 Sur 0 948.1 -- 65
2020-09-11 10:00:00 19.4 2 Sur 5 Sur 0 947.8 -- 87
2020-09-11 09:00:00 17 0 Calma 6 Nordeste 0 947.5 -- 97
2020-09-11 08:00:00 15.4 0 Calma 6 Nordeste 0 947.1 -- 96
2020-09-11 07:00:00 15.4 0 Calma 5 Nordeste 0 947 -- 94
2020-09-11 06:00:00 16.2 4 Nordeste 7 Nordeste 0 947.2 -- 94
2020-09-11 05:00:00 16.6 3 Nordeste 5 Nordeste 0 947.4 -- 92
2020-09-11 04:00:00 16.9 0 Calma 5 Nordeste 0 947.9 -- 91
2020-09-11 03:00:00 17.2 4 Nordeste 5 Nordeste 0 948.1 -- 90
2020-09-11 02:00:00 17.3 0 Calma 2 Noroeste 0 948.4 -- 88
2020-09-11 01:00:00 17.8 3 Oeste 5 Sur 0 948.4 -- 84
2020-09-11 00:00:00 19.2 3 Sur 10 Sur 0 948.7 -- 82
2020-09-10 23:00:00 19.5 3 Sur 9 Sudoeste 0 948.7 -- 77
2020-09-10 22:00:00 20.6 5 Sudoeste 16 Sur 0 948.7 -- 70
2020-09-10 21:00:00 21.7 6 Sur 20 Sur 0 948 -- 64
2020-09-10 20:00:00 23.1 13 Sur 28 Sur 0 947.5 -- 56
2020-09-10 19:00:00 25.5 14 Sur 27 Sur 0 947 -- 40
2020-09-10 18:00:00 29.4 10 Nordeste 20 Nordeste 0 946.7 -- 24
2020-09-10 17:00:00 28.8 9 Norte 27 Nordeste 0 947.1 -- 25
2020-09-10 16:00:00 27.9 10 Norte 25 Nordeste 0 947.4 -- 27
2020-09-10 15:00:00 28.1 9 Nordeste 23 Nordeste 0 948.1 -- 26
2020-09-10 14:00:00 27.4 10 Este 23 Este 0 948.9 -- 29
2020-09-10 13:00:00 26.1 6 Este 18 Este 0 949.6 -- 33
2020-09-10 12:00:00 24.1 3 Nordeste 15 Nordeste 0 950.3 -- 44
2020-09-10 11:00:00 20.9 3 Norte 12 Nordeste 0 950.8 -- 64
2020-09-10 10:00:00 17.9 4 Este 10 Este 0 950.7 -- 91
2020-09-10 09:00:00 16 5 Nordeste 10 Nordeste 0 950.3 -- 97
2020-09-10 08:00:00 14.6 3 Nordeste 9 Norte 0 950.2 -- 97
2020-09-10 07:00:00 14.7 0 Calma 7 Nordeste 0 949.9 -- 97
2020-09-10 06:00:00 15.4 2 Nordeste 6 Nordeste 0 950.2 -- 96
2020-09-10 05:00:00 15.7 3 Nordeste 5 Nordeste 0 950.2 -- 94
2020-09-10 04:00:00 15.7 0 Calma 4 Nordeste 0 950.5 -- 92
2020-09-10 03:00:00 16.4 0 Calma 6 Sudoeste 0 951 -- 91
2020-09-10 02:00:00 17.2 2 Sur 12 Sudoeste 0 951.4 -- 86
2020-09-10 01:00:00 17.9 3 Sur 15 Sur 0 951.8 -- 83
2020-09-10 00:00:00 18.5 9 Sudoeste 14 Sudoeste 0 952 -- 81
2020-09-09 23:00:00 19.3 6 Sur 14 Sur 0 951.7 -- 73
2020-09-09 22:00:00 20.3 6 Sur 17 Sur 0 951.6 -- 65
2020-09-09 21:00:00 21.5 6 Sur 22 Sur 0 950.7 -- 55
2020-09-09 20:00:00 24.7 11 Sur 20 Sur 0 949.7 -- 39
2020-09-09 19:00:00 25.9 6 Norte 17 Nordeste 0 949.7 -- 29
2020-09-09 18:00:00 26.7 12 Nordeste 20 Nordeste 0 949.7 -- 29
2020-09-09 17:00:00 26.7 6 Este 15 Este 0 949.8 -- 32
2020-09-09 16:00:00 26.5 6 Norte 17 Este 0 950.2 -- 34
2020-09-09 15:00:00 25.8 3 Norte 15 Nordeste 0 950.9 -- 37
2020-09-09 14:00:00 24.8 2 Norte 17 Este 0 951.5 -- 41
2020-09-09 13:00:00 23.7 6 Norte 17 Norte 0 952.4 -- 45
2020-09-09 12:00:00 21.7 3 Este 15 Nordeste 0 952.9 -- 52
2020-09-09 11:00:00 20.1 5 Este 12 Nordeste 0 953.3 -- 59
2020-09-09 10:00:00 18.6 5 Nordeste 13 Nordeste 0 953.3 -- 66
2020-09-09 09:00:00 16 6 Nordeste 13 Nordeste 0 952.8 -- 76
2020-09-09 08:00:00 13.9 8 Nordeste 14 Norte 0 952.4 -- 84
2020-09-09 07:00:00 14.4 9 Nordeste 14 Nordeste 0 952 -- 84
2020-09-09 06:00:00 14.4 11 Norte 19 Norte 0 952 -- 84
2020-09-09 05:00:00 14.9 0 Calma 13 Nordeste 0 952.3 -- 82
2020-09-09 04:00:00 14.9 9 Nordeste 14 Nordeste 0 952.7 -- 81
2020-09-09 03:00:00 15.5 6 Norte 9 Nordeste 0 952.9 -- 80
2020-09-09 02:00:00 15.5 0 Calma 5 Noroeste 0 953.3 -- 77
2020-09-09 01:00:00 16.1 0 Calma 6 Sudeste 0 953.4 -- 73
2020-09-09 00:00:00 17.1 4 Sudeste 10 Sur 0 953.8 -- 69
2020-09-08 23:00:00 18.1 5 Sur 13 Sudoeste 0 954 -- 64
2020-09-08 22:00:00 19 5 Sur 17 Sur 0 953.7 -- 59
2020-09-08 21:00:00 20.2 8 Sur 22 Sur 0 952.9 -- 52
2020-09-08 20:00:00 22.9 7 Sudeste 17 Sudeste 0 952.1 -- 39
2020-09-08 19:00:00 24.2 6 Sur 20 Sudeste 0 951.6 -- 35
2020-09-08 18:00:00 24.6 10 Sudeste 24 Sudeste 0 951.5 -- 34
2020-09-08 17:00:00 24.8 8 Sudeste 17 Sudeste 0 951.5 -- 33
2020-09-08 16:00:00 25 6 Sur 22 Sudeste 0 951.8 -- 34
2020-09-08 15:00:00 23.6 5 Sudeste 20 Este 0 952.2 -- 36
2020-09-08 14:00:00 23.9 8 Sur 22 Sur 0 952.7 -- 39
2020-09-08 13:00:00 22.6 9 Sur 24 Sur 0 953.2 -- 42
2020-09-08 12:00:00 20.8 11 Sudoeste 18 Sur 0 953.6 -- 48
2020-09-08 11:00:00 19.4 5 Sudeste 20 Sudeste 0 953.9 -- 63
2020-09-08 10:00:00 17.1 13 Sudeste 26 Este 0 953.7 -- 80
2020-09-08 09:00:00 15.7 10 Este 17 Este 0 953.2 -- 89
2020-09-08 08:00:00 15.1 6 Este 15 Este 0 952.8 -- 89
2020-09-08 07:00:00 15 5 Nordeste 12 Nordeste 0 952.3 -- 88
2020-09-08 06:00:00 14.8 6 Nordeste 9 Este 0 952 -- 88
2020-09-08 05:00:00 14.9 4 Nordeste 9 Nordeste 0 952 -- 84
2020-09-08 04:00:00 15.6 4 Nordeste 10 Este 0 952 -- 80
2020-09-08 03:00:00 16.5 6 Este 12 Este 0 952 -- 76
2020-09-08 02:00:00 16.7 5 Este 15 Este 0 952.2 -- 75
2020-09-08 01:00:00 17.1 10 Este 23 Este 0 952.2 -- 74
2020-09-08 00:00:00 17.7 14 Este 26 Este 0 952.1 -- 73
2020-09-07 23:00:00 18.3 16 Este 26 Nordeste 0 951.5 -- 68
2020-09-07 22:00:00 18.8 12 Este 32 Este 0 951.2 -- 63
2020-09-07 21:00:00 19.6 18 Nordeste 31 Norte 0 949.9 -- 56
2020-09-07 20:00:00 22.4 15 Nordeste 25 Norte 0 948.6 -- 47
2020-09-07 19:00:00 23.8 16 Norte 32 Norte 0 947.5 -- 43
2020-09-07 18:00:00 26.1 12 Norte 23 Norte 0 946.8 -- 40
2020-09-07 17:00:00 26.2 6 Norte 26 Norte 0 946.8 -- 41
2020-09-07 16:00:00 24 15 Norte 41 Noroeste 0 947.1 -- 47
2020-09-07 15:00:00 27.5 6 Oeste 19 Oeste 0 947 -- 36
2020-09-07 14:00:00 25.6 8 Norte 23 Noroeste 0 947.2 -- 44
2020-09-07 13:00:00 24.2 10 Noroeste 22 Noroeste 0 948.2 -- 53
2020-09-07 12:00:00 21.7 8 Noroeste 17 Norte 0 948.8 -- 67
2020-09-07 11:00:00 20.6 7 Noroeste 14 Noroeste 0 948.7 -- 74
2020-09-07 10:00:00 19.4 2 Nordeste 7 Este 0 948.1 -- 87
2020-09-07 09:00:00 18 0 Calma 4 Sur 0 947.6 -- 95
2020-09-07 08:00:00 17.5 0 Calma 4 Nordeste 0 947.2 -- 95
2020-09-07 07:00:00 17.5 0 Calma 5 Noroeste 0 946.8 -- 95
2020-09-07 06:00:00 17.2 0 Calma 8 Oeste 0 946.7 -- 95
2020-09-07 05:00:00 17.2 0 Calma 9 Este 0 946.7 -- 93
2020-09-07 04:00:00 17.7 4 Este 9 Este 0 946.9 -- 92
2020-09-07 03:00:00 17.4 3 Sudeste 5 Este 0 947.6 -- 88
2020-09-07 02:00:00 18.9 4 Este 10 Este 0 948 -- 87
2020-09-07 01:00:00 19.4 5 Este 13 Este 0 948.1 -- 84
2020-09-07 00:00:00 20.1 9 Este 14 Este 0 947.9 -- 80
2020-09-06 23:00:00 21 9 Este 15 Nordeste 0 947.9 -- 72
2020-09-06 22:00:00 22.3 8 Este 18 Nordeste 0 947.3 -- 56
2020-09-06 21:00:00 24.3 9 Este 18 Este 0 946.7 -- 42
2020-09-06 20:00:00 26.2 6 Nordeste 17 Nordeste 0 946.3 -- 35
2020-09-06 19:00:00 28.1 8 Nordeste 19 Este 0 946.5 -- 32
2020-09-06 18:00:00 28.7 7 Nordeste 18 Sudeste 0 946.8 -- 31
2020-09-06 17:00:00 28.7 11 Este 22 Este 0 947.1 -- 33
2020-09-06 16:00:00 28.2 8 Este 20 Este 0 947.6 -- 35
2020-09-06 15:00:00 27.8 9 Este 27 Sudeste 0 948.3 -- 36
2020-09-06 14:00:00 26.2 6 Nordeste 18 Este 0 948.7 -- 41
2020-09-06 13:00:00 24.7 8 Nordeste 17 Este 0 949.3 -- 48
2020-09-06 12:00:00 23.1 6 Este 15 Este 0 949.8 -- 54
2020-09-06 11:00:00 20.6 5 Este 9 Norte 0 949.8 -- 71
2020-09-06 10:00:00 19.8 3 Nordeste 8 Nordeste 0 949.4 -- 82
2020-09-06 09:00:00 18.1 3 Oeste 6 Noroeste 0 949.4 -- 97
2020-09-06 08:00:00 17 2 Norte 6 Noroeste 0 949.2 -- 97
2020-09-06 07:00:00 17 4 Norte 8 Noroeste 0 948.7 -- 97
2020-09-06 06:00:00 17 2 Noroeste 5 Oeste 0 948.9 -- 97
2020-09-06 05:00:00 16.5 0 Calma 4 Oeste 0 949.1 -- 97
2020-09-06 04:00:00 16.9 0 Calma 3 Noroeste 0 949.3 -- 96
2020-09-06 03:00:00 17.6 2 Noroeste 3 Noroeste 0 950 -- 95
2020-09-06 02:00:00 17.9 0 Calma 3 Sur 0 950.3 -- 92
2020-09-06 01:00:00 18.9 0 Calma 12 Nordeste 0 950.5 -- 90
2020-09-06 00:00:00 19.5 5 Este 8 Este 0 950.6 -- 87
2020-09-05 23:00:00 20.3 5 Este 16 Este 0 950.4 -- 82
2020-09-05 22:00:00 21.3 9 Este 20 Este 0 950 -- 72
2020-09-05 21:00:00 22.9 9 Este 19 Nordeste 0 949.1 -- 58
2020-09-05 20:00:00 25.5 10 Nordeste 23 Este 0 948.6 -- 42
2020-09-05 19:00:00 28.4 10 Este 22 Este 0 948.4 -- 33
2020-09-05 18:00:00 29.8 11 Este 19 Este 0 948.4 -- 31
2020-09-05 17:00:00 29.9 7 Este 19 Nordeste 0 948.8 -- 31
2020-09-05 16:00:00 28.4 8 Nordeste 17 Nordeste 0 949.7 -- 32
2020-09-05 15:00:00 26.9 4 Norte 14 Norte 0 950.4 -- 34
2020-09-05 14:00:00 25.9 6 Nordeste 14 Nordeste 0 950.8 -- 40
2020-09-05 13:00:00 24.3 5 Nordeste 15 Este 0 951.7 -- 50
2020-09-05 12:00:00 22.5 5 Nordeste 16 Este 0 952.4 -- 65
2020-09-05 11:00:00 20.8 5 Este 10 Este 0 952.4 -- 74
2020-09-05 10:00:00 19 2 Nordeste 6 Nordeste 0 952.5 -- 96
2020-09-05 09:00:00 17.3 0 Calma 3 Norte 0 952.3 -- 98
2020-09-05 08:00:00 15.5 0 Calma 4 Noroeste 0 952.1 -- 98
2020-09-05 07:00:00 15.7 0 Calma 3 Oeste 0 952 -- 98
2020-09-05 06:00:00 15.7 0 Calma -- -- 0 952.1 -- 97
2020-09-05 05:00:00 15.8 0 Calma 2 Sur 0 952.3 -- 96
2020-09-05 04:00:00 16.8 0 Calma 3 Sur 0 952.8 -- 96
2020-09-05 03:00:00 16.9 0 Calma 6 Este 0 953.4 -- 92
2020-09-05 02:00:00 18.1 3 Este 10 Este 0 953.8 -- 90
2020-09-05 01:00:00 18.4 5 Este 14 Nordeste 0 954.1 -- 88
2020-09-05 00:00:00 18.9 10 Este 19 Este 0 954.2 -- 86
2020-09-04 23:00:00 19.6 13 Este 22 Este 0 954.1 -- 80
2020-09-04 22:00:00 20.6 9 Este 22 Este 0 953.8 -- 71
2020-09-04 21:00:00 22.3 7 Nordeste 21 Este 0 953 -- 53
2020-09-04 20:00:00 24.8 12 Este 23 Este 0 952.7 -- 43
2020-09-04 19:00:00 26.2 13 Este 23 Este 0 952.7 -- 39
2020-09-04 18:00:00 27.5 9 Nordeste 24 Este 0 952.8 -- 36
2020-09-04 17:00:00 27.9 5 Este 24 Nordeste 0 953.2 -- 36
2020-09-04 16:00:00 26.9 9 Nordeste 22 Nordeste 0 953.5 -- 38
2020-09-04 15:00:00 25.5 7 Nordeste 25 Este 0 954.5 -- 42
2020-09-04 14:00:00 25.6 8 Nordeste 25 Sudeste 0 955.3 -- 44
2020-09-04 13:00:00 24.6 8 Nordeste 21 Este 0 955.9 -- 48
2020-09-04 12:00:00 22.5 6 Nordeste 19 Este 0 956.3 -- 57
2020-09-04 11:00:00 20.7 8 Este 14 Este 0 956.2 -- 68
2020-09-04 10:00:00 18.4 2 Norte 6 Este 0 955.9 -- 86
2020-09-04 09:00:00 17.2 3 Sudeste 5 Sudeste 0 955.5 -- 96
2020-09-04 08:00:00 15.7 0 Calma 7 Noroeste 0 955.1 -- 96
2020-09-04 07:00:00 16 3 Noroeste 5 Oeste 0 954.7 -- 96
2020-09-04 06:00:00 16.1 0 Calma 3 Noroeste 0 954.3 -- 96
2020-09-04 05:00:00 16.3 0 Calma 3 Oeste 0 954.2 -- 96
2020-09-04 04:00:00 16.3 0 Calma 5 Sur 0 954.8 -- 95
2020-09-04 03:00:00 16.7 0 Calma 5 Este 0 955.1 -- 92
2020-09-04 02:00:00 17.6 4 Este 8 Este 0 955.5 -- 90
2020-09-04 01:00:00 18.4 4 Este 12 Este 0 955.6 -- 83
2020-09-04 00:00:00 19.2 7 Este 15 Este 0 955.5 -- 74
2020-09-03 23:00:00 19.9 5 Este 22 Este 0 955.1 -- 65
2020-09-03 22:00:00 21 10 Este 20 Este 0 954.4 -- 60
2020-09-03 21:00:00 22.5 10 Nordeste 20 Este 0 953.6 -- 51
2020-09-03 20:00:00 25 10 Nordeste 21 Nordeste 0 952.9 -- 40
2020-09-03 19:00:00 26.9 10 Nordeste 22 Nordeste 0 952.6 -- 36
2020-09-03 18:00:00 27.6 10 Nordeste 22 Nordeste 0 952.5 -- 34
2020-09-03 17:00:00 27.3 8 Nordeste 23 Este 0 952.2 -- 33
2020-09-03 16:00:00 27.6 9 Nordeste 23 Este 0 952.4 -- 34
2020-09-03 15:00:00 27.7 10 Este 22 Este 0 952.8 -- 35
2020-09-03 14:00:00 26 9 Este 23 Nordeste 0 953.2 -- 41
2020-09-03 13:00:00 24.4 9 Este 18 Este 0 953.5 -- 48
2020-09-03 12:00:00 23.1 8 Este 14 Nordeste 0 953.5 -- 51
2020-09-03 11:00:00 21.2 4 Este 11 Este 0 953.4 -- 69
2020-09-03 10:00:00 19.6 6 Este 12 Sudeste 0 952.9 -- 80
2020-09-03 09:00:00 18.3 0 Calma 6 Sudeste 0 952.6 -- 95
2020-09-03 08:00:00 16.6 2 Noroeste 5 Noroeste 0 952 -- 95
2020-09-03 07:00:00 16.1 3 Noroeste 6 Noroeste 0 951.8 -- 95
2020-09-03 06:00:00 16.2 3 Oeste 7 Oeste 0 951.4 -- 94
2020-09-03 05:00:00 17 3 Noroeste 6 Noroeste 0 951.4 -- 91
2020-09-03 04:00:00 16.7 4 Noroeste 5 Noroeste 0 951.1 -- 91
2020-09-03 03:00:00 17.1 0 Calma 8 Norte 0 951.4 -- 89
2020-09-03 02:00:00 17.7 2 Nordeste 9 Nordeste 0 951.4 -- 87
2020-09-03 01:00:00 18.4 3 Nordeste 10 Este 0 950.9 -- 82
2020-09-03 00:00:00 19.1 6 Este 15 Este 0 950.6 -- 76
2020-09-02 23:00:00 19.6 8 Este 14 Este 0 950.3 -- 72
2020-09-02 22:00:00 19.5 2 Nordeste 6 Nordeste 0 949.7 -- 70
2020-09-02 21:00:00 20 2 Nordeste 14 Este 0 949.1 -- 67
2020-09-02 20:00:00 20.9 6 Nordeste 23 Norte 0 948.6 -- 64
2020-09-02 19:00:00 22.4 11 Norte 34 Norte 0 947.9 -- 51
2020-09-02 18:00:00 25.6 8 Nordeste 21 Este 0 946.8 -- 37
2020-09-02 17:00:00 27.3 9 Este 23 Nordeste 0 946.5 -- 32
2020-09-02 16:00:00 27.4 7 Nordeste 23 Este 0 946.5 -- 33
2020-09-02 15:00:00 26.8 12 Este 23 Este 0 946.9 -- 39
2020-09-02 14:00:00 25.7 11 Este 23 Este 0 947.2 -- 45
2020-09-02 13:00:00 24.5 7 Este 21 Este 0 947.8 -- 52
2020-09-02 12:00:00 -- -- -- -- -- -- -- -- --
2020-09-02 11:00:00 -- -- -- -- -- -- -- -- --
2020-09-02 10:00:00 -- -- -- -- -- -- -- -- --
2020-09-02 09:00:00 -- -- -- -- -- -- -- -- --
2020-09-02 08:00:00 -- -- -- -- -- -- -- -- --
2020-09-02 07:00:00 -- -- -- -- -- -- -- -- --
2020-09-02 06:00:00 -- -- -- -- -- -- -- -- --
2020-09-02 05:00:00 -- -- -- -- -- -- -- -- --
2020-09-02 04:00:00 -- -- -- -- -- -- -- -- --
2020-09-02 03:00:00 -- -- -- -- -- -- -- -- --
2020-09-02 02:00:00 -- -- -- -- -- -- -- -- --
2020-09-02 01:00:00 -- -- -- -- -- -- -- -- --
2020-09-02 00:00:00 -- -- -- -- -- -- -- -- --
2020-09-01 23:00:00 -- -- -- -- -- -- -- -- --
2020-09-01 22:00:00 -- -- -- -- -- -- -- -- --
2020-09-01 21:00:00 -- -- -- -- -- -- -- -- --
2020-09-01 20:00:00 -- -- -- -- -- -- -- -- --
2020-09-01 19:00:00 -- -- -- -- -- -- -- -- --
2020-09-01 18:00:00 -- -- -- -- -- -- -- -- --
2020-09-01 17:00:00 -- -- -- -- -- -- -- -- --
2020-09-01 16:00:00 -- -- -- -- -- -- -- -- --
2020-09-01 15:00:00 -- -- -- -- -- -- -- -- --
2020-09-01 14:00:00 -- -- -- -- -- -- -- -- --
2020-09-01 13:00:00 -- -- -- -- -- -- -- -- --
2020-09-01 12:00:00 -- -- -- -- -- -- -- -- --
2020-09-01 11:00:00 -- -- -- -- -- -- -- -- --
2020-09-01 10:00:00 -- -- -- -- -- -- -- -- --
2020-09-01 09:00:00 -- -- -- -- -- -- -- -- --
2020-09-01 08:00:00 -- -- -- -- -- -- -- -- --
2020-09-01 07:00:00 -- -- -- -- -- -- -- -- --
2020-09-01 06:00:00 -- -- -- -- -- -- -- -- --
2020-09-01 05:00:00 -- -- -- -- -- -- -- -- --
2020-09-01 04:00:00 -- -- -- -- -- -- -- -- --
2020-09-01 03:00:00 -- -- -- -- -- -- -- -- --
2020-09-01 02:00:00 -- -- -- -- -- -- -- -- --
2020-09-01 01:00:00 -- -- -- -- -- -- -- -- --
2020-09-01 00:00:00 -- -- -- -- -- -- -- -- --
2020-08-31 23:00:00 -- -- -- -- -- -- -- -- --
2020-08-31 22:00:00 -- -- -- -- -- -- -- -- --
2020-08-31 21:00:00 -- -- -- -- -- -- -- -- --
2020-08-31 20:00:00 -- -- -- -- -- -- -- -- --
2020-08-31 19:00:00 -- -- -- -- -- -- -- -- --
2020-08-31 18:00:00 -- -- -- -- -- -- -- -- --
2020-08-31 17:00:00 -- -- -- -- -- -- -- -- --
2020-08-31 16:00:00 -- -- -- -- -- -- -- -- --
2020-08-31 15:00:00 -- -- -- -- -- -- -- -- --
2020-08-31 14:00:00 -- -- -- -- -- -- -- -- --
2020-08-31 13:00:00 -- -- -- -- -- -- -- -- --
2020-08-31 12:00:00 -- -- -- -- -- -- -- -- --
2020-08-31 11:00:00 -- -- -- -- -- -- -- -- --
2020-08-31 10:00:00 -- -- -- -- -- -- -- -- --
2020-08-31 09:00:00 -- -- -- -- -- -- -- -- --
2020-08-31 08:00:00 -- -- -- -- -- -- -- -- --
2020-08-31 07:00:00 -- -- -- -- -- -- -- -- --
2020-08-31 06:00:00 -- -- -- -- -- -- -- -- --
2020-08-31 05:00:00 -- -- -- -- -- -- -- -- --
2020-08-31 04:00:00 -- -- -- -- -- -- -- -- --
2020-08-31 03:00:00 -- -- -- -- -- -- -- -- --
2020-08-31 02:00:00 -- -- -- -- -- -- -- -- --
2020-08-31 01:00:00 -- -- -- -- -- -- -- -- --
2020-08-31 00:00:00 -- -- -- -- -- -- -- -- --
2020-08-30 23:00:00 -- -- -- -- -- -- -- -- --
2020-08-30 22:00:00 -- -- -- -- -- -- -- -- --
2020-08-30 21:00:00 -- -- -- -- -- -- -- -- --
2020-08-30 20:00:00 -- -- -- -- -- -- -- -- --
2020-08-30 19:00:00 -- -- -- -- -- -- -- -- --
2020-08-30 18:00:00 -- -- -- -- -- -- -- -- --
2020-08-30 17:00:00 -- -- -- -- -- -- -- -- --
2020-08-30 16:00:00 -- -- -- -- -- -- -- -- --
2020-08-30 15:00:00 -- -- -- -- -- -- -- -- --
2020-08-30 14:00:00 -- -- -- -- -- -- -- -- --
2020-08-30 13:00:00 -- -- -- -- -- -- -- -- --
2020-08-30 12:00:00 -- -- -- -- -- -- -- -- --
2020-08-30 11:00:00 -- -- -- -- -- -- -- -- --
2020-08-30 10:00:00 -- -- -- -- -- -- -- -- --
2020-08-30 09:00:00 -- -- -- -- -- -- -- -- --
2020-08-30 08:00:00 -- -- -- -- -- -- -- -- --
2020-08-30 07:00:00 -- -- -- -- -- -- -- -- --
2020-08-30 06:00:00 -- -- -- -- -- -- -- -- --
2020-08-30 05:00:00 -- -- -- -- -- -- -- -- --
2020-08-30 04:00:00 -- -- -- -- -- -- -- -- --
2020-08-30 03:00:00 -- -- -- -- -- -- -- -- --
2020-08-30 02:00:00 -- -- -- -- -- -- -- -- --
2020-08-30 01:00:00 -- -- -- -- -- -- -- -- --
2020-08-30 00:00:00 -- -- -- -- -- -- -- -- --
2020-08-29 23:00:00 -- -- -- -- -- -- -- -- --
2020-08-29 22:00:00 -- -- -- -- -- -- -- -- --
2020-08-29 21:00:00 -- -- -- -- -- -- -- -- --
2020-08-29 20:00:00 -- -- -- -- -- -- -- -- --
2020-08-29 19:00:00 -- -- -- -- -- -- -- -- --
2020-08-29 18:00:00 -- -- -- -- -- -- -- -- --
2020-08-29 17:00:00 -- -- -- -- -- -- -- -- --
2020-08-29 16:00:00 -- -- -- -- -- -- -- -- --
2020-08-29 15:00:00 -- -- -- -- -- -- -- -- --
2020-08-29 14:00:00 -- -- -- -- -- -- -- -- --
2020-08-29 13:00:00 -- -- -- -- -- -- -- -- --
2020-08-29 12:00:00 -- -- -- -- -- -- -- -- --
2020-08-29 11:00:00 -- -- -- -- -- -- -- -- --
2020-08-29 10:00:00 -- -- -- -- -- -- -- -- --
2020-08-29 09:00:00 -- -- -- -- -- -- -- -- --
2020-08-29 08:00:00 -- -- -- -- -- -- -- -- --
2020-08-29 07:00:00 -- -- -- -- -- -- -- -- --
2020-08-29 06:00:00 -- -- -- -- -- -- -- -- --
2020-08-29 05:00:00 -- -- -- -- -- -- -- -- --
2020-08-29 04:00:00 -- -- -- -- -- -- -- -- --
2020-08-29 03:00:00 -- -- -- -- -- -- -- -- --
2020-08-29 02:00:00 -- -- -- -- -- -- -- -- --
2020-08-29 01:00:00 -- -- -- -- -- -- -- -- --
2020-08-29 00:00:00 -- -- -- -- -- -- -- -- --
2020-08-28 23:00:00 -- -- -- -- -- -- -- -- --
2020-08-28 22:00:00 29.1 15 Sudoeste 29 Sudoeste 0 936.3 -- 28
2020-08-28 21:00:00 30.7 17 Sudoeste 35 Sudoeste 0 936 -- 28
2020-08-28 20:00:00 32.2 23 Sudoeste 38 Sudoeste 0 935.9 -- 28
2020-08-28 19:00:00 33.4 17 Sur 33 Sur 0 935.9 -- 25
2020-08-28 18:00:00 35.3 17 Sur 38 Sur 0 935.9 -- 22
2020-08-28 17:00:00 35.7 5 Sudoeste 24 Sudeste 0 936.2 -- 25
2020-08-28 16:00:00 35.5 4 Sudeste 22 Sudeste 0 937.3 -- 27
2020-08-28 15:00:00 33.8 3 Norte 16 Nordeste 0 937.8 -- 30
2020-08-28 14:00:00 33.4 6 Este 17 Este 0 938.9 -- 32
2020-08-28 13:00:00 31.7 6 Este 17 Este 0 940.1 -- 34
2020-08-28 12:00:00 29.1 5 Este 12 Sudeste 0 940.7 -- 39
2020-08-28 11:00:00 26.8 4 Nordeste 8 Nordeste 0 941.2 -- 43
2020-08-28 10:00:00 24.5 3 Nordeste 6 Nordeste 0 941.3 -- 47
2020-08-28 09:00:00 22.4 0 Calma 3 Nordeste 0 941.3 -- 51
2020-08-28 08:00:00 19.9 0 Calma 3 Oeste 0 941.6 -- 53
2020-08-28 07:00:00 21.2 0 Calma 8 Oeste 0 941.8 -- 51
2020-08-28 06:00:00 21.6 0 Calma 6 Oeste 0 942.3 -- 50
2020-08-28 05:00:00 21.6 0 Calma 3 Sur 0 942.6 -- 50
2020-08-28 04:00:00 21.4 2 Sudeste 3 Sur 0 943.2 -- 49
2020-08-28 03:00:00 22.4 0 Calma 2 Sudoeste 0 943.8 -- 49
2020-08-28 02:00:00 22.9 0 Calma 3 Nordeste 0 944.5 -- 47
2020-08-28 01:00:00 24.8 3 Oeste 15 Oeste 0 945.2 -- 44
2020-08-28 00:00:00 25.8 4 Noroeste 12 Noroeste 0 945.4 -- 41
2020-08-27 23:00:00 26.9 0 Calma 16 Norte 0 945.6 -- 34
2020-08-27 22:00:00 28.2 3 Nordeste 16 Nordeste 0 945.6 -- 31
2020-08-27 21:00:00 30.3 6 Nordeste 27 Nordeste 0 945.4 -- 28
2020-08-27 20:00:00 32.3 19 Este 33 Este 0 944.9 -- 27
2020-08-27 19:00:00 34.4 14 Este 32 Este 0 945.2 -- 28
2020-08-27 18:00:00 35.6 16 Este 29 Este 0 945.5 -- 24
2020-08-27 17:00:00 36.9 14 Este 26 Este 0 946.1 -- 22
2020-08-27 16:00:00 37.6 8 Este 19 Nordeste 0 946.7 -- 22
2020-08-27 15:00:00 36.2 9 Este 19 Este 0 947.6 -- 24
2020-08-27 14:00:00 35.1 10 Este 21 Nordeste 0 948.3 -- 27
2020-08-27 13:00:00 33.1 9 Este 17 Este 0 948.8 -- 31
2020-08-27 12:00:00 30.6 4 Este 11 Este 0 949.5 -- 39
2020-08-27 11:00:00 27.7 3 Norte 7 Nordeste 0 949.6 -- 46
2020-08-27 10:00:00 25.6 2 Nordeste 5 Nordeste 0 949.6 -- 51
2020-08-27 09:00:00 23.2 0 Calma 10 Noroeste 0 949.8 -- 58
2020-08-27 08:00:00 21.2 6 Oeste 10 Oeste 0 949.5 -- 62
2020-08-27 07:00:00 21.2 2 Noroeste 8 Noroeste 0 949.5 -- 59
2020-08-27 06:00:00 21.7 5 Oeste 12 Oeste 0 949.5 -- 57
2020-08-27 05:00:00 22 0 Calma 5 Noroeste 0 949.6 -- 55
2020-08-27 04:00:00 22.5 3 Oeste 5 Oeste 0 950.1 -- 52
2020-08-27 03:00:00 22.9 0 Calma 6 Oeste 0 950.3 -- 51
2020-08-27 02:00:00 23.6 0 Calma 3 Norte 0 950.7 -- 49
2020-08-27 01:00:00 24.4 0 Calma 4 Noroeste 0 951 -- 47
2020-08-27 00:00:00 24.8 2 Sur 9 Nordeste 0 951.2 -- 43
2020-08-26 23:00:00 26.5 3 Este 10 Este 0 950.8 -- 38
2020-08-26 22:00:00 27.8 7 Este 16 Nordeste 0 950.2 -- 36
2020-08-26 21:00:00 29.3 10 Este 22 Este 0 949.4 -- 33
2020-08-26 20:00:00 32.2 8 Nordeste 26 Este 0 948.8 -- 28
2020-08-26 19:00:00 34.4 11 Nordeste 23 Este 0 948.4 -- 26
2020-08-26 18:00:00 36 8 Este 25 Nordeste 0 948.5 -- 23
2020-08-26 17:00:00 36.2 11 Este 24 Este 0 949 -- 23
2020-08-26 16:00:00 35.8 12 Este 27 Nordeste 0 949.2 -- 24
2020-08-26 15:00:00 34.5 8 Nordeste 25 Este 0 949.8 -- 26
2020-08-26 14:00:00 33.5 10 Este 25 Este 0 950.1 -- 27
2020-08-26 13:00:00 32 6 Este 17 Este 0 950.6 -- 32
2020-08-26 12:00:00 29.7 5 Nordeste 13 Este 0 951 -- 38
2020-08-26 11:00:00 27.3 3 Nordeste 9 Este 0 950.9 -- 46
2020-08-26 10:00:00 25.5 3 Nordeste 6 Nordeste 0 950.5 -- 49
2020-08-26 09:00:00 22.6 0 Calma 4 Norte 0 950.1 -- 61
2020-08-26 08:00:00 19.6 0 Calma 4 Oeste 0 949.9 -- 66
2020-08-26 07:00:00 20.3 0 Calma 6 Oeste 0 949.5 -- 63
2020-08-26 06:00:00 20.6 0 Calma 5 Oeste 0 949.3 -- 61
2020-08-26 05:00:00 20.7 0 Calma 4 Sur 0 949.4 -- 60
2020-08-26 04:00:00 21.1 0 Calma 5 Sudoeste 0 949.4 -- 58
2020-08-26 03:00:00 21.8 0 Calma 3 Sur 0 949.6 -- 54
2020-08-26 02:00:00 22.9 0 Calma 3 Nordeste 0 949.6 -- 53
2020-08-26 01:00:00 24.3 0 Calma 6 Norte 0 949.7 -- 52
2020-08-26 00:00:00 24.7 2 Norte 10 Este 0 949.5 -- 52
2020-08-25 23:00:00 26 7 Este 12 Este 0 949 -- 49
2020-08-25 22:00:00 27 6 Este 16 Este 0 948.2 -- 45
2020-08-25 21:00:00 28.5 12 Este 24 Este 0 947.2 -- 40
2020-08-25 20:00:00 31.6 12 Este 22 Nordeste 0 946.6 -- 31
2020-08-25 19:00:00 33.5 9 Nordeste 26 Este 0 946.4 -- 28
2020-08-25 18:00:00 34.4 10 Nordeste 23 Este 0 946.4 -- 26
2020-08-25 17:00:00 35.2 9 Nordeste 22 Este 0 946.5 -- 25
2020-08-25 16:00:00 34.5 12 Este 24 Este 0 947 -- 25
2020-08-25 15:00:00 33 9 Nordeste 23 Norte 0 947.3 -- 28
2020-08-25 14:00:00 32.5 5 Este 17 Este 0 947.8 -- 33
2020-08-25 13:00:00 29.8 6 Este 17 Este 0 948.3 -- 41
2020-08-25 12:00:00 27.3 5 Este 15 Este 0 948.6 -- 52
2020-08-25 11:00:00 24.9 5 Nordeste 10 Nordeste 0 948.8 -- 70
2020-08-25 10:00:00 22.7 0 Calma 7 Norte 0 948.5 -- 89
2020-08-25 09:00:00 20.8 0 Calma 5 Este 0 948.4 -- 97
2020-08-25 08:00:00 20.4 0 Calma 8 Sudeste 0 947.9 -- 97
2020-08-25 07:00:00 20.3 3 Sudeste 6 Sudeste 0 947.7 -- 97
2020-08-25 06:00:00 20.2 0 Calma 2 Sur 0 947.7 -- 97
2020-08-25 05:00:00 19.8 0 Calma 7 Este 0 948.1 -- 96
2020-08-25 04:00:00 20.1 2 Sudeste 7 Este 0 948.1 -- 94
2020-08-25 03:00:00 20.9 3 Este 11 Este 0 948.2 -- 93
2020-08-25 02:00:00 21.4 7 Este 14 Este 0 948.5 -- 90
2020-08-25 01:00:00 21.9 5 Nordeste 15 Este 0 948.5 -- 89
2020-08-25 00:00:00 22.6 8 Este 14 Este 0 948.4 -- 85
2020-08-24 23:00:00 23.4 8 Nordeste 23 Este 0 948.2 -- 81
2020-08-24 22:00:00 24.3 12 Este 21 Este 0 947.8 -- 73
2020-08-24 21:00:00 25.6 13 Este 25 Nordeste 0 946.6 -- 61
2020-08-24 20:00:00 28.3 10 Este 22 Nordeste 0 946.4 -- 46
2020-08-24 19:00:00 30.4 9 Este 27 Este 0 946.3 -- 40
2020-08-24 18:00:00 31.4 9 Nordeste 27 Este 0 946.3 -- 37
2020-08-24 17:00:00 31.3 10 Nordeste 27 Este 0 946.7 -- 37
2020-08-24 16:00:00 31.5 12 Este 24 Este 0 947 -- 39
2020-08-24 15:00:00 30.3 10 Este 26 Este 0 947.8 -- 42
2020-08-24 14:00:00 29.1 10 Este 28 Este 0 948.2 -- 46
2020-08-24 13:00:00 28.7 9 Este 22 Este 0 948.8 -- 50
2020-08-24 12:00:00 27.4 12 Este 21 Este 0 949.4 -- 56
2020-08-24 11:00:00 24.3 11 Este 18 Este 0 949.6 -- 74
2020-08-24 10:00:00 23.6 5 Nordeste 18 Este 0 949.4 -- 88
2020-08-24 09:00:00 22.3 8 Este 13 Este 0 949.1 -- 97
2020-08-24 08:00:00 21.8 5 Este 11 Este 0 948.8 -- 97
2020-08-24 07:00:00 21.7 6 Este 13 Este 0 948.6 -- 97
2020-08-24 06:00:00 21.5 4 Sudeste 9 Este 0 948.6 -- 96
2020-08-24 05:00:00 21.9 0 Calma 6 Este 0 948.6 -- 96
2020-08-24 04:00:00 22 0 Calma 10 Este 0 948.6 -- 93
2020-08-24 03:00:00 22.6 4 Nordeste 15 Este 0 948.8 -- 93
2020-08-24 02:00:00 22.5 9 Este 17 Este 0 948.9 -- 93
2020-08-24 01:00:00 22.5 9 Este 18 Este 0 949.5 -- 93
2020-08-24 00:00:00 23 9 Este 18 Este 0 949.5 -- 89
2020-08-23 23:00:00 23.7 7 Este 18 Este 0 949.4 -- 81
2020-08-23 22:00:00 24.5 8 Este 23 Nordeste 0 949.4 -- 74
2020-08-23 21:00:00 26 9 Nordeste 25 Este 0 948.5 -- 61
2020-08-23 20:00:00 28 15 Este 30 Este 0 948.2 -- 51
2020-08-23 19:00:00 29.9 15 Este 28 Este 0 948.3 -- 44
2020-08-23 18:00:00 30.7 15 Este 31 Este 0 948.3 -- 42
2020-08-23 17:00:00 31.7 14 Este 32 Sudeste 0 948.6 -- 40
2020-08-23 16:00:00 32.2 11 Este 26 Este 0 949.1 -- 39
2020-08-23 15:00:00 31.5 12 Este 28 Este 0 949.6 -- 42
2020-08-23 14:00:00 30 9 Este 19 Este 0 950.3 -- 46
2020-08-23 13:00:00 28.5 9 Este 20 Sudeste 0 951.1 -- 54
2020-08-23 12:00:00 26.5 5 Nordeste 17 Norte 0 951.8 -- 62
2020-08-23 11:00:00 24.4 5 Este 13 Este 0 951.8 -- 76
2020-08-23 10:00:00 22.7 2 Norte 11 Noroeste 0 951.7 -- 97
2020-08-23 09:00:00 21.8 4 Nordeste 10 Este 0 951.6 -- 97
2020-08-23 08:00:00 21.2 0 Calma 6 Nordeste 0 951.2 -- 97
2020-08-23 07:00:00 20.8 2 Norte 10 Noroeste 0 950.7 -- 97
2020-08-23 06:00:00 20.7 7 Noroeste 10 Noroeste 0 950.5 -- 97
2020-08-23 05:00:00 21.5 0 Calma 4 Este 0 950.5 -- 97
2020-08-23 04:00:00 21.7 0 Calma 5 Sudoeste 0 950.5 -- 95
2020-08-23 03:00:00 22.4 0 Calma 2 Sur 0 950.6 -- 93
2020-08-23 02:00:00 23.5 0 Calma 4 Nordeste 0 951 -- 92
2020-08-23 01:00:00 23.4 0 Calma 6 Sudeste 0 951.5 -- 91
2020-08-23 00:00:00 24.1 3 Sudeste 10 Sur 0 951.6 -- 87
2020-08-22 23:00:00 25.4 4 Sudeste 10 Este 0 951.4 -- 75
2020-08-22 22:00:00 26.5 3 Este 16 Este 0 951.2 -- 69
2020-08-22 21:00:00 28 6 Nordeste 22 Este 0 950.1 -- 60
2020-08-22 20:00:00 30.4 10 Este 24 Este 0 949.4 -- 51
2020-08-22 19:00:00 32.4 11 Este 29 Este 0 949.2 -- 44
2020-08-22 18:00:00 34.2 17 Este 36 Este 0 949 -- 36
2020-08-22 17:00:00 36.9 8 Sudeste 14 Sudeste 0 948.9 -- 25
2020-08-22 16:00:00 35.6 5 Nordeste 17 Este 0 949.6 -- 27
2020-08-22 15:00:00 35 5 Nordeste 18 Oeste 0 950.4 -- 29
2020-08-22 14:00:00 33.9 5 Sudoeste 20 Sudoeste 0 950.9 -- 32
2020-08-22 13:00:00 32.5 6 Oeste 23 Oeste 0 951.3 -- 37
2020-08-22 12:00:00 31 7 Oeste 22 Noroeste 0 951.9 -- 42
2020-08-22 11:00:00 29.3 10 Noroeste 19 Oeste 0 951.8 -- 47
2020-08-22 10:00:00 27.3 10 Oeste 24 Oeste 0 951.1 -- 53
2020-08-22 09:00:00 24.6 10 Noroeste 21 Oeste 0 951 -- 58
2020-08-22 08:00:00 22.8 8 Oeste 35 Sudoeste 0 950.3 -- 57
2020-08-22 07:00:00 23.3 18 Oeste 30 Sudoeste 0 949.9 -- 51
2020-08-22 06:00:00 23.4 15 Oeste 29 Oeste 0 949.5 -- 35
2020-08-22 05:00:00 24.1 17 Oeste 27 Oeste 0 949.4 -- 30
2020-08-22 04:00:00 23.2 4 Noroeste 14 Oeste 0 949 -- 30
2020-08-22 03:00:00 24.1 7 Oeste 18 Oeste 0 949 -- 32
2020-08-22 02:00:00 25 12 Oeste 22 Oeste 0 949.2 -- 44
2020-08-22 01:00:00 25.1 0 Calma 17 Oeste 0 949.1 -- 65
2020-08-22 00:00:00 26.1 0 Calma 3 Noroeste 0 948.6 -- 59